createdAt,value
2018-08-18T00:03:03.373Z,80.80
2018-08-18T00:06:07.805Z,79.90
2018-08-18T00:09:12.433Z,80.60
2018-08-18T00:12:21.972Z,81.00
2018-08-18T00:15:26.483Z,81.40
2018-08-18T00:18:31.028Z,81.60
2018-08-18T00:21:35.513Z,82.10
2018-08-18T00:24:45.263Z,82.40
2018-08-18T00:27:49.697Z,81.10
2018-08-18T00:30:54.522Z,81.30
2018-08-18T00:33:59.053Z,82.30
2018-08-18T00:37:03.500Z,83.00
2018-08-18T00:40:09.625Z,83.10
2018-08-18T00:43:14.092Z,83.50
2018-08-18T00:46:18.542Z,84.50
2018-08-18T00:49:23.675Z,84.40
2018-08-18T00:52:28.112Z,84.10
2018-08-18T00:55:32.549Z,84.40
2018-08-18T00:58:37.029Z,85.00
2018-08-18T01:01:41.542Z,85.00
2018-08-18T01:04:51.157Z,85.90
2018-08-18T01:07:55.619Z,84.60
2018-08-18T01:11:00.108Z,85.80
2018-08-18T01:14:13.750Z,86.20
2018-08-18T01:17:18.135Z,86.30
2018-08-18T01:20:22.579Z,86.30
2018-08-18T01:23:27.104Z,86.00
2018-08-18T01:26:31.571Z,85.80
2018-08-18T01:29:36.009Z,86.30
2018-08-18T01:32:40.500Z,86.30
2018-08-18T01:35:44.961Z,85.30
2018-08-18T01:38:49.487Z,84.00
2018-08-18T01:41:54.011Z,83.80
2018-08-18T01:44:58.465Z,83.60
2018-08-18T01:48:02.960Z,83.60
2018-08-18T01:51:16.474Z,83.10
2018-08-18T01:54:21.015Z,82.30
2018-08-18T01:57:25.547Z,82.40
2018-08-18T02:00:30.005Z,81.40
2018-08-18T02:03:34.559Z,80.90
2018-08-18T02:06:39.023Z,81.50
2018-08-18T02:09:43.468Z,81.50
2018-08-18T02:13:00.978Z,81.30
2018-08-18T02:16:05.504Z,80.60
2018-08-18T02:19:10.030Z,80.90
2018-08-18T02:22:14.481Z,81.00
2018-08-18T02:25:18.979Z,79.90
2018-08-18T02:28:29.830Z,80.40
2018-08-18T02:31:34.584Z,79.50
2018-08-18T02:34:39.111Z,79.80
2018-08-18T02:37:43.589Z,79.10
2018-08-18T02:40:48.059Z,79.50
2018-08-18T02:43:52.589Z,79.90
2018-08-18T02:46:57.755Z,79.50
2018-08-18T02:50:02.274Z,79.90
2018-08-18T02:53:22.177Z,81.10
2018-08-18T02:56:36.630Z,81.20
2018-08-18T02:59:41.123Z,81.30
2018-08-18T03:02:45.648Z,80.90
2018-08-18T03:05:50.173Z,82.20
2018-08-18T03:08:54.622Z,81.20
2018-08-18T03:11:59.124Z,80.80
2018-08-18T03:15:03.653Z,81.30
2018-08-18T03:18:08.145Z,81.30
2018-08-18T03:21:12.782Z,81.60
2018-08-18T03:24:19.762Z,82.90
2018-08-18T03:27:24.192Z,83.50
2018-08-18T03:30:28.657Z,84.20
2018-08-18T03:33:33.349Z,83.80
2018-08-18T03:36:43.271Z,83.50
2018-08-18T03:39:47.714Z,83.80
2018-08-18T03:42:52.199Z,83.90
2018-08-18T03:45:56.690Z,83.80
2018-08-18T03:49:01.350Z,84.40
2018-08-18T03:52:05.812Z,85.20
2018-08-18T03:55:10.290Z,85.60
2018-08-18T03:58:14.794Z,85.70
2018-08-18T04:02:04.798Z,85.40
2018-08-18T04:05:10.295Z,85.30
2018-08-18T04:08:14.731Z,84.80
2018-08-18T04:11:19.279Z,84.90
2018-08-18T04:14:30.682Z,84.70
2018-08-18T04:17:35.198Z,84.60
2018-08-18T04:20:39.665Z,84.50
2018-08-18T04:23:44.147Z,84.70
2018-08-18T04:26:50.429Z,84.90
2018-08-18T04:29:54.878Z,84.80
2018-08-18T04:33:03.414Z,84.90
2018-08-18T04:36:07.861Z,84.70
2018-08-18T04:39:14.305Z,84.60
2018-08-18T04:42:18.746Z,83.90
2018-08-18T04:45:23.213Z,84.40
2018-08-18T04:48:31.682Z,84.50
2018-08-18T04:51:36.207Z,85.20
2018-08-18T04:54:40.669Z,85.00
2018-08-18T04:57:45.501Z,85.30
2018-08-18T05:00:49.953Z,85.20
2018-08-18T05:04:10.222Z,85.80
2018-08-18T05:07:14.731Z,86.50
2018-08-18T05:10:21.286Z,86.20
2018-08-18T05:13:25.822Z,86.00
2018-08-18T05:16:30.278Z,86.20
2018-08-18T05:19:34.714Z,86.10
2018-08-18T05:22:39.192Z,86.00
2018-08-18T05:25:43.727Z,85.90
2018-08-18T05:28:48.332Z,84.90
2018-08-18T05:31:52.806Z,85.30
2018-08-18T05:34:57.530Z,84.70
2018-08-18T05:38:02.855Z,83.90
2018-08-18T05:41:07.305Z,83.90
2018-08-18T05:44:11.823Z,81.90
2018-08-18T05:47:16.346Z,81.10
2018-08-18T05:50:21.693Z,80.60
2018-08-18T05:53:27.324Z,81.50
2018-08-18T05:56:31.787Z,81.50
2018-08-18T05:59:36.540Z,81.40
2018-08-18T06:02:45.047Z,80.60
2018-08-18T06:05:49.752Z,80.50
2018-08-18T06:08:54.177Z,81.30
2018-08-18T06:12:04.839Z,81.50
2018-08-18T06:15:09.324Z,81.10
2018-08-18T06:18:13.794Z,80.60
2018-08-18T06:21:18.301Z,80.10
2018-08-18T06:24:22.949Z,80.50
2018-08-18T06:27:29.928Z,80.90
2018-08-18T06:30:34.374Z,81.30
2018-08-18T06:33:39.126Z,80.60
2018-08-18T06:36:43.515Z,80.30
2018-08-18T06:39:58.585Z,79.90
2018-08-18T06:43:02.997Z,79.60
2018-08-18T06:46:07.442Z,80.20
2018-08-18T06:49:11.938Z,80.00
2018-08-18T06:52:19.656Z,81.00
2018-08-18T06:55:24.076Z,81.00
2018-08-18T06:58:28.500Z,79.30
2018-08-18T07:01:32.886Z,79.50
2018-08-18T07:04:37.377Z,79.40
2018-08-18T07:07:42.902Z,79.30
2018-08-18T07:10:47.301Z,78.20
2018-08-18T07:13:51.749Z,79.10
2018-08-18T07:16:56.170Z,78.50
2018-08-18T07:20:01.558Z,78.20
2018-08-18T07:23:06.430Z,76.70
2018-08-18T07:26:10.898Z,77.10
2018-08-18T07:29:15.306Z,78.40
2018-08-18T07:32:19.990Z,78.40
2018-08-18T07:35:24.471Z,77.20
2018-08-18T07:38:28.983Z,78.10
2018-08-18T07:41:33.449Z,77.60
2018-08-18T07:44:37.898Z,77.00
2018-08-18T07:47:42.456Z,76.10
2018-08-18T07:50:46.913Z,77.30
2018-08-18T07:53:51.350Z,76.40
2018-08-18T07:56:55.802Z,75.90
2018-08-18T08:00:02.384Z,75.60
2018-08-18T08:03:09.296Z,74.60
2018-08-18T08:06:14.220Z,75.10
2018-08-18T08:09:19.060Z,74.60
2018-08-18T08:12:24.043Z,75.00
2018-08-18T08:15:29.760Z,75.80
2018-08-18T08:18:34.527Z,74.80
2018-08-18T08:21:39.181Z,74.60
2018-08-18T08:24:44.145Z,73.70
2018-08-18T08:27:50.680Z,72.80
2018-08-18T08:30:55.522Z,73.10
2018-08-18T08:34:00.232Z,70.20
2018-08-18T08:37:05.155Z,69.50
2018-08-18T08:40:12.955Z,68.90
2018-08-18T08:43:33.277Z,67.80
2018-08-18T08:46:43.059Z,67.50
2018-08-18T08:49:47.789Z,65.80
2018-08-18T08:52:54.069Z,65.90
2018-08-18T08:55:58.785Z,64.50
2018-08-18T08:59:03.944Z,64.60
2018-08-18T09:02:11.133Z,63.90
2018-08-18T09:05:16.010Z,64.00
2018-08-18T09:08:20.660Z,63.60
2018-08-18T09:11:25.410Z,62.10
2018-08-18T09:14:30.366Z,60.80
2018-08-18T09:17:35.281Z,59.90
2018-08-18T09:20:44.094Z,59.00
2018-08-18T09:23:48.978Z,58.80
2018-08-18T09:26:59.888Z,60.60
2018-08-18T09:30:04.843Z,58.40
2018-08-18T09:33:09.911Z,58.70
2018-08-18T09:36:14.774Z,57.50
2018-08-18T09:39:37.899Z,57.10
2018-08-18T09:42:42.886Z,57.10
2018-08-18T09:45:47.762Z,56.90
2018-08-18T09:48:52.805Z,55.80
2018-08-18T09:51:57.947Z,57.20
2018-08-18T09:55:02.977Z,55.90
2018-08-18T09:58:08.757Z,56.50
2018-08-18T10:01:13.743Z,56.40
2018-08-18T10:04:18.416Z,55.60
2018-08-18T10:07:23.065Z,56.10
2018-08-18T10:10:28.164Z,53.90
2018-08-18T10:13:33.014Z,54.60
2018-08-18T10:16:38.795Z,54.80
2018-08-18T10:19:43.606Z,54.40
2018-08-18T10:22:48.349Z,53.60
2018-08-18T10:25:53.414Z,53.00
2018-08-18T10:29:15.641Z,53.60
2018-08-18T10:32:20.493Z,52.90
2018-08-18T10:35:31.710Z,53.20
2018-08-18T10:38:36.491Z,52.10
2018-08-18T10:41:58.334Z,52.60
2018-08-18T10:45:03.832Z,50.70
2018-08-18T10:48:08.541Z,52.30
2018-08-18T10:51:31.003Z,50.00
2018-08-18T10:54:36.756Z,50.30
2018-08-18T10:57:59.759Z,51.50
2018-08-18T11:01:04.616Z,50.20
2018-08-18T11:04:09.383Z,49.80
2018-08-18T11:07:14.243Z,51.60
2018-08-18T11:10:19.095Z,49.40
2018-08-18T11:13:23.803Z,50.30
2018-08-18T11:16:30.101Z,50.00
2018-08-18T11:19:34.960Z,50.60
2018-08-18T11:23:13.693Z,50.70
2018-08-18T11:26:18.474Z,49.20
2018-08-18T11:29:23.153Z,49.70
2018-08-18T11:32:28.015Z,48.70
2018-08-18T11:35:33.399Z,49.40
2018-08-18T11:38:38.246Z,48.90
2018-08-18T11:41:43.073Z,48.70
2018-08-18T11:44:47.965Z,47.40
2018-08-18T11:48:08.066Z,48.20
2018-08-18T11:51:12.771Z,48.90
2018-08-18T11:54:17.561Z,49.50
2018-08-18T11:57:22.114Z,47.30
2018-08-18T12:00:31.559Z,46.80
2018-08-18T12:03:36.404Z,48.90
2018-08-18T12:06:59.203Z,48.80
2018-08-18T12:10:05.120Z,47.20
2018-08-18T12:13:09.941Z,47.50
2018-08-18T12:16:16.422Z,47.60
2018-08-18T12:19:21.158Z,47.00
2018-08-18T12:22:26.272Z,46.70
2018-08-18T12:25:31.228Z,46.40
2018-08-18T12:28:43.093Z,45.80
2018-08-18T12:31:47.688Z,47.10
2018-08-18T12:34:52.592Z,45.50
2018-08-18T12:37:57.330Z,47.40
2018-08-18T12:41:02.776Z,45.20
2018-08-18T12:44:07.567Z,46.80
2018-08-18T12:47:12.198Z,45.10
2018-08-18T12:50:20.844Z,45.30
2018-08-18T12:53:26.600Z,46.10
2018-08-18T12:56:31.441Z,44.50
2018-08-18T12:59:37.123Z,45.80
2018-08-18T13:02:47.197Z,43.90
2018-08-18T13:05:53.118Z,45.20
2018-08-18T13:08:57.552Z,44.80
2018-08-18T13:12:03.235Z,43.80
2018-08-18T13:15:07.905Z,44.80
2018-08-18T13:18:12.321Z,44.70
2018-08-18T13:21:16.835Z,44.40
2018-08-18T13:24:21.256Z,43.30
2018-08-18T13:27:25.679Z,42.90
2018-08-18T13:30:30.104Z,43.60
2018-08-18T13:33:38.622Z,42.80
2018-08-18T13:36:43.990Z,42.80
2018-08-18T13:39:48.446Z,42.80
2018-08-18T13:42:52.941Z,42.50
2018-08-18T13:45:57.466Z,42.50
2018-08-18T13:49:04.298Z,42.00
2018-08-18T13:52:08.701Z,41.70
2018-08-18T13:55:13.155Z,43.10
2018-08-18T13:58:17.578Z,43.50
2018-08-18T14:01:38.907Z,42.40
2018-08-18T14:04:44.080Z,42.40
2018-08-18T14:07:56.734Z,42.20
2018-08-18T14:11:01.275Z,42.30
2018-08-18T14:14:05.641Z,41.10
2018-08-18T14:17:11.143Z,40.90
2018-08-18T14:20:15.617Z,41.10
2018-08-18T14:23:20.043Z,41.90
2018-08-18T14:26:24.565Z,40.90
2018-08-18T14:29:30.013Z,42.20
2018-08-18T14:32:34.538Z,39.80
2018-08-18T14:35:38.976Z,41.40
2018-08-18T14:38:45.298Z,42.00
2018-08-18T14:41:49.781Z,40.50
2018-08-18T14:44:57.818Z,41.30
2018-08-18T14:48:02.324Z,41.90
2018-08-18T14:51:06.938Z,40.90
2018-08-18T14:54:11.460Z,40.30
2018-08-18T14:57:15.877Z,40.40
2018-08-18T15:00:20.869Z,39.80
2018-08-18T15:03:25.374Z,39.60
2018-08-18T15:06:29.818Z,43.00
2018-08-18T15:09:45.837Z,41.70
2018-08-18T15:12:51.838Z,42.90
2018-08-18T15:15:58.414Z,41.50
2018-08-18T15:19:02.887Z,40.70
2018-08-18T15:22:09.144Z,42.00
2018-08-18T15:25:13.597Z,41.20
2018-08-18T15:28:19.837Z,41.30
2018-08-18T15:31:24.234Z,41.20
2018-08-18T15:34:29.129Z,40.60
2018-08-18T15:37:33.544Z,41.30
2018-08-18T15:40:37.950Z,40.50
2018-08-18T15:43:42.361Z,40.90
2018-08-18T15:46:46.753Z,41.60
2018-08-18T15:49:51.186Z,40.80
2018-08-18T15:52:55.762Z,40.90
2018-08-18T15:56:00.170Z,41.40
2018-08-18T15:59:05.019Z,42.10
2018-08-18T16:02:09.431Z,41.80
2018-08-18T16:05:13.897Z,41.50
2018-08-18T16:08:18.381Z,41.50
2018-08-18T16:11:22.826Z,42.60
2018-08-18T16:14:27.252Z,43.10
2018-08-18T16:17:31.660Z,41.40
2018-08-18T16:20:36.084Z,42.80
2018-08-18T16:23:41.708Z,42.10
2018-08-18T16:26:46.160Z,42.60
2018-08-18T16:29:53.106Z,42.80
2018-08-18T16:33:18.318Z,44.40
2018-08-18T16:36:23.615Z,44.60
2018-08-18T16:39:28.123Z,42.90
2018-08-18T16:42:33.731Z,42.90
2018-08-18T16:45:38.287Z,43.80
2018-08-18T16:48:43.135Z,44.70
2018-08-18T16:51:51.635Z,44.60
2018-08-18T16:54:56.183Z,44.70
2018-08-18T16:58:00.723Z,45.60
2018-08-18T17:01:05.305Z,45.70
2018-08-18T17:04:12.823Z,46.10
2018-08-18T17:07:23.263Z,46.60
2018-08-18T17:10:27.757Z,47.00
2018-08-18T17:13:34.453Z,46.40
2018-08-18T17:16:39.000Z,46.90
2018-08-18T17:19:43.442Z,46.50
2018-08-18T17:22:47.871Z,47.60
2018-08-18T17:25:52.331Z,46.80
2018-08-18T17:28:56.798Z,48.00
2018-08-18T17:32:01.213Z,48.30
2018-08-18T17:35:06.179Z,48.10
2018-08-18T17:38:10.601Z,48.40
2018-08-18T17:41:15.006Z,49.10
2018-08-18T17:44:19.859Z,49.70
2018-08-18T17:47:24.302Z,49.50
2018-08-18T17:50:28.808Z,51.60
2018-08-18T17:53:33.838Z,50.60
2018-08-18T17:56:38.270Z,50.60
2018-08-18T17:59:42.757Z,51.10
2018-08-18T18:02:53.659Z,52.00
2018-08-18T18:05:58.196Z,54.10
2018-08-18T18:09:02.621Z,55.00
2018-08-18T18:12:27.338Z,54.20
2018-08-18T18:15:37.265Z,54.80
2018-08-18T18:18:46.666Z,55.90
2018-08-18T18:21:51.140Z,56.80
2018-08-18T18:24:55.565Z,57.80
2018-08-18T18:28:02.390Z,58.10
2018-08-18T18:31:06.853Z,58.70
2018-08-18T18:34:11.299Z,58.90
2018-08-18T18:37:15.991Z,59.70
2018-08-18T18:40:20.484Z,60.30
2018-08-18T18:43:24.967Z,59.80
2018-08-18T18:46:29.460Z,58.50
2018-08-18T18:49:33.906Z,60.80
2018-08-18T18:52:38.510Z,61.80
2018-08-18T18:55:47.055Z,62.60
2018-08-18T18:58:51.549Z,63.00
2018-08-18T19:01:56.027Z,63.90
2018-08-18T19:05:00.500Z,63.80
2018-08-18T19:08:15.272Z,64.00
2018-08-18T19:11:19.732Z,64.60
2018-08-18T19:14:24.193Z,62.70
2018-08-18T19:17:28.643Z,64.70
2018-08-18T19:20:33.205Z,65.00
2018-08-18T19:23:37.784Z,65.00
2018-08-18T19:26:51.366Z,65.50
2018-08-18T19:29:55.896Z,65.40
2018-08-18T19:33:00.432Z,65.40
2018-08-18T19:36:04.938Z,65.50
2018-08-18T19:39:09.474Z,66.20
2018-08-18T19:42:18.285Z,66.00
2018-08-18T19:45:22.831Z,66.20
2018-08-18T19:48:28.376Z,67.10
2018-08-18T19:51:32.849Z,67.30
2018-08-18T19:54:37.325Z,68.50
2018-08-18T19:57:42.140Z,67.90
2018-08-18T20:00:46.606Z,68.40
2018-08-18T20:03:51.681Z,68.50
2018-08-18T20:06:56.154Z,69.20
2018-08-18T20:10:00.584Z,69.90
2018-08-18T20:13:05.051Z,69.40
2018-08-18T20:16:10.282Z,69.40
2018-08-18T20:19:14.760Z,69.50
2018-08-18T20:22:19.290Z,68.80
2018-08-18T20:25:23.722Z,69.30
2018-08-18T20:28:28.339Z,69.30
2018-08-18T20:31:32.793Z,69.40
2018-08-18T20:34:37.211Z,69.30
2018-08-18T20:37:41.713Z,69.40
2018-08-18T20:40:46.117Z,69.70
2018-08-18T20:43:50.530Z,69.40
2018-08-18T20:46:54.994Z,68.80
2018-08-18T20:49:59.503Z,69.10
2018-08-18T20:53:07.997Z,68.30
2018-08-18T20:56:12.451Z,68.70
2018-08-18T20:59:16.923Z,69.00
2018-08-18T21:02:21.550Z,69.00
2018-08-18T21:05:25.996Z,69.30
2018-08-18T21:08:30.915Z,68.90
2018-08-18T21:11:35.340Z,69.70
2018-08-18T21:14:39.802Z,69.40
2018-08-18T21:17:44.214Z,69.30
2018-08-18T21:20:49.410Z,69.60
2018-08-18T21:23:54.077Z,69.40
2018-08-18T21:26:58.510Z,70.10
2018-08-18T21:30:02.959Z,70.60
2018-08-18T21:33:08.401Z,70.50
2018-08-18T21:36:12.906Z,70.30
2018-08-18T21:39:17.349Z,70.90
2018-08-18T21:42:22.038Z,70.90
2018-08-18T21:45:30.586Z,70.40
2018-08-18T21:48:47.410Z,70.80
2018-08-18T21:51:51.940Z,71.50
2018-08-18T21:54:56.536Z,71.90
2018-08-18T21:58:01.046Z,71.40
2018-08-18T22:01:10.782Z,71.50
2018-08-18T22:04:15.286Z,71.40
2018-08-18T22:07:19.742Z,72.60
2018-08-18T22:10:24.195Z,72.10
2018-08-18T22:13:29.123Z,72.00
2018-08-18T22:16:33.694Z,71.70
2018-08-18T22:19:38.137Z,71.90
2018-08-18T22:22:42.638Z,72.40
2018-08-18T22:25:47.076Z,71.60
2018-08-18T22:28:58.766Z,72.30
2018-08-18T22:32:08.738Z,72.00
2018-08-18T22:35:13.822Z,71.90
2018-08-18T22:38:18.290Z,72.00
2018-08-18T22:41:22.889Z,70.80
2018-08-18T22:44:27.346Z,71.00
2018-08-18T22:47:31.832Z,71.30
2018-08-18T22:50:36.288Z,71.70
2018-08-18T22:53:40.750Z,71.70
2018-08-18T22:56:49.293Z,71.60
2018-08-18T22:59:54.090Z,72.30
2018-08-18T23:02:58.635Z,72.90
2018-08-18T23:06:03.199Z,73.20
2018-08-18T23:09:08.014Z,72.60
2018-08-18T23:12:12.535Z,73.20
2018-08-18T23:15:17.074Z,72.80
2018-08-18T23:18:21.709Z,72.40
2018-08-18T23:21:28.950Z,72.70
2018-08-18T23:24:37.686Z,72.10
2018-08-18T23:27:42.146Z,72.10
2018-08-18T23:30:46.601Z,72.40
2018-08-18T23:33:51.094Z,72.50
2018-08-18T23:36:56.240Z,72.70
2018-08-18T23:40:00.674Z,73.10
2018-08-18T23:43:05.185Z,72.60
2018-08-18T23:46:09.609Z,73.10
2018-08-18T23:49:13.995Z,73.20
2018-08-18T23:52:18.733Z,73.80
2018-08-18T23:55:23.193Z,73.20
2018-08-18T23:58:27.688Z,72.90
